createdAt,value
2023-03-10T00:00:03.565Z,955.90
2023-03-10T00:01:03.516Z,955.79
2023-03-10T00:02:03.445Z,955.96
2023-03-10T00:03:03.431Z,955.82
2023-03-10T00:04:03.677Z,955.79
2023-03-10T00:05:03.459Z,955.82
2023-03-10T00:06:03.694Z,955.65
2023-03-10T00:07:03.594Z,955.54
2023-03-10T00:08:03.776Z,955.73
2023-03-10T00:09:03.711Z,955.51
2023-03-10T00:10:03.682Z,955.56
2023-03-10T00:11:03.772Z,955.62
2023-03-10T00:12:03.840Z,955.62
2023-03-10T00:13:03.767Z,955.54
2023-03-10T00:14:03.800Z,955.54
2023-03-10T00:15:03.855Z,955.56
2023-03-10T00:16:03.958Z,955.54
2023-03-10T00:17:03.941Z,955.56
2023-03-10T00:18:02.921Z,955.54
2023-03-10T00:19:02.972Z,955.54
2023-03-10T00:20:03.118Z,955.48
2023-03-10T00:21:03.081Z,955.65
2023-03-10T00:22:03.150Z,955.68
2023-03-10T00:23:03.182Z,955.54
2023-03-10T00:24:03.164Z,955.63
2023-03-10T00:25:03.229Z,955.46
2023-03-10T00:26:03.264Z,955.49
2023-03-10T00:27:03.250Z,955.41
2023-03-10T00:28:03.280Z,955.38
2023-03-10T00:29:03.335Z,955.44
2023-03-10T00:30:03.324Z,955.47
2023-03-10T00:31:03.485Z,955.50
2023-03-10T00:32:03.378Z,955.41
2023-03-10T00:33:03.413Z,955.41
2023-03-10T00:34:03.440Z,955.47
2023-03-10T00:35:03.493Z,955.53
2023-03-10T00:36:03.633Z,955.44
2023-03-10T00:37:03.401Z,955.44
2023-03-10T00:38:03.448Z,955.50
2023-03-10T00:39:03.429Z,955.39
2023-03-10T00:40:03.491Z,955.44
2023-03-10T00:41:03.400Z,955.33
2023-03-10T00:42:03.359Z,955.33
2023-03-10T00:43:03.452Z,955.27
2023-03-10T00:44:03.591Z,955.41
2023-03-10T00:45:03.536Z,955.30
2023-03-10T00:46:03.792Z,955.29
2023-03-10T00:47:03.543Z,955.32
2023-03-10T00:48:03.524Z,955.26
2023-03-10T00:49:03.585Z,955.17
2023-03-10T00:50:03.619Z,955.31
2023-03-10T00:51:03.690Z,955.20
2023-03-10T00:52:03.864Z,955.11
2023-03-10T00:53:03.765Z,955.05
2023-03-10T00:54:03.751Z,955.16
2023-03-10T00:55:03.854Z,955.10
2023-03-10T00:56:03.744Z,955.04
2023-03-10T00:57:03.875Z,955.12
2023-03-10T00:58:03.745Z,955.07
2023-03-10T00:59:03.861Z,955.01
2023-03-10T01:00:03.818Z,954.95
2023-03-10T01:01:03.825Z,954.92
2023-03-10T01:02:04.019Z,954.98
2023-03-10T01:03:03.857Z,955.00
2023-03-10T01:04:03.952Z,955.03
2023-03-10T01:05:03.945Z,954.86
2023-03-10T01:06:03.874Z,954.92
2023-03-10T01:07:03.013Z,954.92
2023-03-10T01:08:03.023Z,954.94
2023-03-10T01:09:03.049Z,954.94
2023-03-10T01:10:03.279Z,954.94
2023-03-10T01:11:03.369Z,954.83
2023-03-10T01:12:03.409Z,954.88
2023-03-10T01:13:03.461Z,954.86
2023-03-10T01:14:03.567Z,954.71
2023-03-10T01:15:03.617Z,954.66
2023-03-10T01:16:03.936Z,954.58
2023-03-10T01:17:03.720Z,954.44
2023-03-10T01:18:03.779Z,954.63
2023-03-10T01:19:03.691Z,954.58
2023-03-10T01:20:03.792Z,954.49
2023-03-10T01:21:03.849Z,954.58
2023-03-10T01:22:03.798Z,954.58
2023-03-10T01:23:03.810Z,954.46
2023-03-10T01:24:02.912Z,954.43
2023-03-10T01:25:03.066Z,954.43
2023-03-10T01:26:03.097Z,954.52
2023-03-10T01:27:03.133Z,954.40
2023-03-10T01:28:03.286Z,954.41
2023-03-10T01:29:03.759Z,954.46
2023-03-10T01:30:03.860Z,954.41
2023-03-10T01:31:03.029Z,954.35
2023-03-10T01:32:03.002Z,954.46
2023-03-10T01:33:03.006Z,954.27
2023-03-10T01:34:03.025Z,954.35
2023-03-10T01:35:03.031Z,954.24
2023-03-10T01:36:03.154Z,954.16
2023-03-10T01:37:03.055Z,954.30
2023-03-10T01:38:03.018Z,954.19
2023-03-10T01:39:03.074Z,954.34
2023-03-10T01:40:03.047Z,954.30
2023-03-10T01:41:03.032Z,954.30
2023-03-10T01:42:03.049Z,954.30
2023-03-10T01:43:03.014Z,954.19
2023-03-10T01:44:03.005Z,954.24
2023-03-10T01:45:03.047Z,954.18
2023-03-10T01:46:03.060Z,954.04
2023-03-10T01:47:03.276Z,954.07
2023-03-10T01:48:03.062Z,954.13
2023-03-10T01:49:02.998Z,954.04
2023-03-10T01:50:03.096Z,954.10
2023-03-10T01:51:03.136Z,954.15
2023-03-10T01:52:03.144Z,954.04
2023-03-10T01:53:03.059Z,954.01
2023-03-10T01:54:03.079Z,954.10
2023-03-10T01:55:03.251Z,954.10
2023-03-10T01:56:03.153Z,954.01
2023-03-10T01:57:03.206Z,954.07
2023-03-10T01:58:03.298Z,953.98
2023-03-10T01:59:03.320Z,953.87
2023-03-10T02:00:03.301Z,953.87
2023-03-10T02:01:03.417Z,953.90
2023-03-10T02:02:03.389Z,953.96
2023-03-10T02:03:03.368Z,953.84
2023-03-10T02:04:03.325Z,953.73
2023-03-10T02:05:03.318Z,953.78
2023-03-10T02:06:03.312Z,953.87
2023-03-10T02:07:03.224Z,953.64
2023-03-10T02:08:03.287Z,953.87
2023-03-10T02:09:03.415Z,953.75
2023-03-10T02:10:03.365Z,953.81
2023-03-10T02:11:03.242Z,953.75
2023-03-10T02:12:03.294Z,953.81
2023-03-10T02:13:03.434Z,953.67
2023-03-10T02:14:03.434Z,953.72
2023-03-10T02:15:03.434Z,953.67
2023-03-10T02:16:03.646Z,953.75
2023-03-10T02:17:03.636Z,953.78
2023-03-10T02:18:03.968Z,953.78
2023-03-10T02:19:03.735Z,953.72
2023-03-10T02:20:03.779Z,953.75
2023-03-10T02:21:03.820Z,953.72
2023-03-10T02:22:03.811Z,953.86
2023-03-10T02:23:03.876Z,953.84
2023-03-10T02:24:03.920Z,953.64
2023-03-10T02:25:03.880Z,953.78
2023-03-10T02:26:03.836Z,953.61
2023-03-10T02:27:03.834Z,953.78
2023-03-10T02:28:03.249Z,953.75
2023-03-10T02:29:03.165Z,953.66
2023-03-10T02:30:03.094Z,953.66
2023-03-10T02:31:03.209Z,953.69
2023-03-10T02:32:03.401Z,953.41
2023-03-10T02:33:03.207Z,953.72
2023-03-10T02:34:03.200Z,953.63
2023-03-10T02:35:03.285Z,953.49
2023-03-10T02:36:03.450Z,953.47
2023-03-10T02:37:03.365Z,953.41
2023-03-10T02:38:03.442Z,953.46
2023-03-10T02:39:03.494Z,953.46
2023-03-10T02:40:03.772Z,953.47
2023-03-10T02:41:03.847Z,953.41
2023-03-10T02:42:03.781Z,953.41
2023-03-10T02:43:03.795Z,953.49
2023-03-10T02:44:03.889Z,953.41
2023-03-10T02:45:03.014Z,953.41
2023-03-10T02:46:03.163Z,953.21
2023-03-10T02:47:03.075Z,953.32
2023-03-10T02:48:03.070Z,953.38
2023-03-10T02:49:02.998Z,953.32
2023-03-10T02:50:03.046Z,953.29
2023-03-10T02:51:02.972Z,953.41
2023-03-10T02:52:02.941Z,953.35
2023-03-10T02:53:02.947Z,953.24
2023-03-10T02:54:03.073Z,953.24
2023-03-10T02:55:03.079Z,953.32
2023-03-10T02:56:02.998Z,953.23
2023-03-10T02:57:03.017Z,953.38
2023-03-10T02:58:03.000Z,953.35
2023-03-10T02:59:03.885Z,953.35
2023-03-10T03:00:02.946Z,953.35
2023-03-10T03:01:03.079Z,953.29
2023-03-10T03:02:03.870Z,953.29
2023-03-10T03:03:02.987Z,953.29
2023-03-10T03:04:03.208Z,953.18
2023-03-10T03:05:03.008Z,953.12
2023-03-10T03:06:03.143Z,953.26
2023-03-10T03:07:03.204Z,953.23
2023-03-10T03:08:03.125Z,953.18
2023-03-10T03:09:03.175Z,953.12
2023-03-10T03:10:03.193Z,953.15
2023-03-10T03:11:03.239Z,953.15
2023-03-10T03:12:03.268Z,953.04
2023-03-10T03:13:03.339Z,953.18
2023-03-10T03:14:03.421Z,953.12
2023-03-10T03:15:03.525Z,953.04
2023-03-10T03:16:03.570Z,952.98
2023-03-10T03:17:03.954Z,953.04
2023-03-10T03:18:03.648Z,953.01
2023-03-10T03:19:03.716Z,953.01
2023-03-10T03:20:03.606Z,953.00
2023-03-10T03:21:03.678Z,952.98
2023-03-10T03:22:03.674Z,952.94
2023-03-10T03:23:03.639Z,952.95
2023-03-10T03:24:03.592Z,952.94
2023-03-10T03:25:03.649Z,953.00
2023-03-10T03:26:03.721Z,952.90
2023-03-10T03:27:03.665Z,952.90
2023-03-10T03:28:03.772Z,952.90
2023-03-10T03:29:03.783Z,952.92
2023-03-10T03:30:03.792Z,952.89
2023-03-10T03:31:03.911Z,952.83
2023-03-10T03:32:04.006Z,952.83
2023-03-10T03:33:02.925Z,952.80
2023-03-10T03:34:02.984Z,952.77
2023-03-10T03:35:03.964Z,952.83
2023-03-10T03:36:03.978Z,952.72
2023-03-10T03:37:02.905Z,952.77
2023-03-10T03:38:03.046Z,952.63
2023-03-10T03:39:02.988Z,952.74
2023-03-10T03:40:03.076Z,952.68
2023-03-10T03:41:03.080Z,952.69
2023-03-10T03:42:03.183Z,952.68
2023-03-10T03:43:03.230Z,952.60
2023-03-10T03:44:03.323Z,952.66
2023-03-10T03:45:03.410Z,952.54
2023-03-10T03:46:03.525Z,952.60
2023-03-10T03:47:03.351Z,952.54
2023-03-10T03:48:03.441Z,952.79
2023-03-10T03:49:03.487Z,952.74
2023-03-10T03:50:03.343Z,952.60
2023-03-10T03:51:03.351Z,952.63
2023-03-10T03:52:03.446Z,952.46
2023-03-10T03:53:03.418Z,952.65
2023-03-10T03:54:03.516Z,952.62
2023-03-10T03:55:03.421Z,952.74
2023-03-10T03:56:03.439Z,952.60
2023-03-10T03:57:03.536Z,952.65
2023-03-10T03:58:03.525Z,952.54
2023-03-10T03:59:03.565Z,952.54
2023-03-10T04:00:03.592Z,952.54
2023-03-10T04:01:03.671Z,952.48
2023-03-10T04:02:03.682Z,952.40
2023-03-10T04:03:03.544Z,952.48
2023-03-10T04:04:03.513Z,952.39
2023-03-10T04:05:03.517Z,952.37
2023-03-10T04:06:03.508Z,952.25
2023-03-10T04:07:03.532Z,952.36
2023-03-10T04:08:03.560Z,952.50
2023-03-10T04:09:03.690Z,952.31
2023-03-10T04:10:03.724Z,952.45
2023-03-10T04:11:03.732Z,952.42
2023-03-10T04:12:03.820Z,952.36
2023-03-10T04:13:03.906Z,952.56
2023-03-10T04:14:03.043Z,952.50
2023-03-10T04:15:03.105Z,952.22
2023-03-10T04:16:03.112Z,952.53
2023-03-10T04:17:03.100Z,952.39
2023-03-10T04:18:03.065Z,952.36
2023-03-10T04:19:03.210Z,952.30
2023-03-10T04:20:08.685Z,952.39
2023-03-10T04:21:03.167Z,952.39
2023-03-10T04:22:03.151Z,952.36
2023-03-10T04:23:03.216Z,952.36
2023-03-10T04:24:03.094Z,952.38
2023-03-10T04:25:03.196Z,952.24
2023-03-10T04:26:03.142Z,952.24
2023-03-10T04:27:03.117Z,952.33
2023-03-10T04:28:03.633Z,952.27
2023-03-10T04:29:03.624Z,952.32
2023-03-10T04:30:03.693Z,952.21
2023-03-10T04:31:03.835Z,952.27
2023-03-10T04:32:06.272Z,952.21
2023-03-10T04:33:03.805Z,952.27
2023-03-10T04:34:03.863Z,952.26
2023-03-10T04:35:03.117Z,952.26
2023-03-10T04:36:03.284Z,952.26
2023-03-10T04:37:03.127Z,952.21
2023-03-10T04:38:03.111Z,952.18
2023-03-10T04:39:03.082Z,952.20
2023-03-10T04:40:03.149Z,952.20
2023-03-10T04:41:03.153Z,952.12
2023-03-10T04:42:03.199Z,952.20
2023-03-10T04:43:03.118Z,952.18
2023-03-10T04:44:03.209Z,952.20
2023-03-10T04:45:03.231Z,952.23
2023-03-10T04:46:03.243Z,952.15
2023-03-10T04:47:03.256Z,952.06
2023-03-10T04:48:03.743Z,952.15
2023-03-10T04:49:03.705Z,952.18
2023-03-10T04:50:03.758Z,952.26
2023-03-10T04:51:03.895Z,951.96
2023-03-10T04:52:03.732Z,952.32
2023-03-10T04:53:03.728Z,952.23
2023-03-10T04:54:03.686Z,952.26
2023-03-10T04:55:03.813Z,952.26
2023-03-10T04:56:03.785Z,952.18
2023-03-10T04:57:03.738Z,952.21
2023-03-10T04:58:03.912Z,952.18
2023-03-10T04:59:03.826Z,952.26
2023-03-10T05:00:04.154Z,952.26
2023-03-10T05:01:04.334Z,952.09
2023-03-10T05:02:03.925Z,952.20
2023-03-10T05:03:03.638Z,952.29
2023-03-10T05:04:03.908Z,952.09
2023-03-10T05:05:03.755Z,952.01
2023-03-10T05:06:03.882Z,952.18
2023-03-10T05:07:03.769Z,952.12
2023-03-10T05:08:03.894Z,952.12
2023-03-10T05:09:03.952Z,952.12
2023-03-10T05:10:03.857Z,952.18
2023-03-10T05:11:03.821Z,952.23
2023-03-10T05:12:02.936Z,952.23
2023-03-10T05:13:03.016Z,952.20
2023-03-10T05:14:03.023Z,952.26
2023-03-10T05:15:03.118Z,952.23
2023-03-10T05:16:03.272Z,952.37
2023-03-10T05:17:03.247Z,952.29
2023-03-10T05:18:03.325Z,952.20
2023-03-10T05:19:03.268Z,952.20
2023-03-10T05:20:03.353Z,952.32
2023-03-10T05:21:03.402Z,952.26
2023-03-10T05:22:03.349Z,952.29
2023-03-10T05:23:03.356Z,952.34
2023-03-10T05:24:03.532Z,952.26
2023-03-10T05:25:03.844Z,952.26
2023-03-10T05:26:03.827Z,952.29
2023-03-10T05:27:03.892Z,952.32
2023-03-10T05:28:03.849Z,952.38
2023-03-10T05:29:03.767Z,952.24
2023-03-10T05:30:03.863Z,952.26
2023-03-10T05:31:04.057Z,952.35
2023-03-10T05:32:03.001Z,952.18
2023-03-10T05:33:03.060Z,952.15
2023-03-10T05:34:02.993Z,952.12
2023-03-10T05:35:03.083Z,952.26
2023-03-10T05:36:03.164Z,952.21
2023-03-10T05:37:03.024Z,952.18
2023-03-10T05:38:02.920Z,952.12
2023-03-10T05:39:03.926Z,952.21
2023-03-10T05:40:03.887Z,952.18
2023-03-10T05:41:03.909Z,952.15
2023-03-10T05:42:03.824Z,952.12
2023-03-10T05:43:08.971Z,952.12
2023-03-10T05:44:03.923Z,952.09
2023-03-10T05:45:02.953Z,952.24
2023-03-10T05:46:02.934Z,952.18
2023-03-10T05:47:03.133Z,951.96
2023-03-10T05:48:03.078Z,952.21
2023-03-10T05:49:03.022Z,952.24
2023-03-10T05:50:02.948Z,952.15
2023-03-10T05:51:03.076Z,952.21
2023-03-10T05:52:03.071Z,952.12
2023-03-10T05:53:02.958Z,952.21
2023-03-10T05:54:03.095Z,952.26
2023-03-10T05:55:03.121Z,952.18
2023-03-10T05:56:03.099Z,952.18
2023-03-10T05:57:03.053Z,952.18
2023-03-10T05:58:02.936Z,952.18
2023-03-10T05:59:03.029Z,952.26
2023-03-10T06:00:03.012Z,952.18
2023-03-10T06:01:03.036Z,952.29
2023-03-10T06:02:03.142Z,952.09
2023-03-10T06:03:03.230Z,952.17
2023-03-10T06:04:03.272Z,952.12
2023-03-10T06:05:03.302Z,952.09
2023-03-10T06:06:03.421Z,952.06
2023-03-10T06:07:03.437Z,952.09
2023-03-10T06:08:03.667Z,951.84
2023-03-10T06:09:03.495Z,951.90
2023-03-10T06:10:03.649Z,951.95
2023-03-10T06:11:03.832Z,952.03
2023-03-10T06:12:03.552Z,951.95
2023-03-10T06:13:03.564Z,951.95
2023-03-10T06:14:03.726Z,951.98
2023-03-10T06:15:03.688Z,951.95
2023-03-10T06:16:03.879Z,951.92
2023-03-10T06:17:03.672Z,951.90
2023-03-10T06:18:03.709Z,951.95
2023-03-10T06:19:03.876Z,951.84
2023-03-10T06:20:03.933Z,951.92
2023-03-10T06:21:03.840Z,952.06
2023-03-10T06:22:02.943Z,951.95
2023-03-10T06:23:03.054Z,951.98
2023-03-10T06:24:03.093Z,951.98
2023-03-10T06:25:03.043Z,951.92
2023-03-10T06:26:03.027Z,951.92
2023-03-10T06:27:03.167Z,951.89
2023-03-10T06:28:03.159Z,951.89
2023-03-10T06:29:03.192Z,951.86
2023-03-10T06:30:03.239Z,952.02
2023-03-10T06:31:03.257Z,951.97
2023-03-10T06:32:03.387Z,951.92
2023-03-10T06:33:03.343Z,951.92
2023-03-10T06:34:04.935Z,951.97
2023-03-10T06:35:03.417Z,951.83
2023-03-10T06:36:03.573Z,951.77
2023-03-10T06:37:03.489Z,951.89
2023-03-10T06:38:03.475Z,951.94
2023-03-10T06:39:03.718Z,951.97
2023-03-10T06:40:03.461Z,951.92
2023-03-10T06:41:03.524Z,951.91
2023-03-10T06:42:03.628Z,951.86
2023-03-10T06:43:03.597Z,951.97
2023-03-10T06:44:03.634Z,951.80
2023-03-10T06:45:03.564Z,951.94
2023-03-10T06:46:03.849Z,951.91
2023-03-10T06:47:03.854Z,951.96
2023-03-10T06:48:03.750Z,951.94
2023-03-10T06:49:03.741Z,951.82
2023-03-10T06:50:03.680Z,951.96
2023-03-10T06:51:03.698Z,952.09
2023-03-10T06:52:03.710Z,952.04
2023-03-10T06:53:03.776Z,951.90
2023-03-10T06:54:04.104Z,951.81
2023-03-10T06:55:03.921Z,951.90
2023-03-10T06:56:03.820Z,951.95
2023-03-10T06:57:03.918Z,951.86
2023-03-10T06:58:03.060Z,951.91
2023-03-10T06:59:03.073Z,951.79
2023-03-10T07:00:03.243Z,951.79
2023-03-10T07:01:03.278Z,951.75
2023-03-10T07:02:03.269Z,951.77
2023-03-10T07:03:03.435Z,951.77
2023-03-10T07:04:03.427Z,951.84
2023-03-10T07:05:03.821Z,951.89
2023-03-10T07:06:03.645Z,951.92
2023-03-10T07:07:03.564Z,951.91
2023-03-10T07:08:03.692Z,951.93
2023-03-10T07:09:03.745Z,952.06
2023-03-10T07:10:04.035Z,952.11
2023-03-10T07:11:03.811Z,952.17
2023-03-10T07:12:03.788Z,952.22
2023-03-10T07:13:03.841Z,952.16
2023-03-10T07:14:03.963Z,952.24
2023-03-10T07:15:03.893Z,952.18
2023-03-10T07:16:03.865Z,952.35
2023-03-10T07:17:04.094Z,952.35
2023-03-10T07:18:03.010Z,952.35
2023-03-10T07:19:03.120Z,952.49
2023-03-10T07:20:03.209Z,952.47
2023-03-10T07:21:03.190Z,952.35
2023-03-10T07:22:03.288Z,952.47
2023-03-10T07:23:03.344Z,952.58
2023-03-10T07:24:03.603Z,952.58
2023-03-10T07:25:03.435Z,952.68
2023-03-10T07:26:03.392Z,952.68
2023-03-10T07:27:03.428Z,952.50
2023-03-10T07:28:03.491Z,952.63
2023-03-10T07:29:03.570Z,952.57
2023-03-10T07:30:03.621Z,952.53
2023-03-10T07:31:04.026Z,952.64
2023-03-10T07:32:03.635Z,952.61
2023-03-10T07:33:03.781Z,952.66
2023-03-10T07:34:03.717Z,952.71
2023-03-10T07:35:03.835Z,952.76
2023-03-10T07:36:03.945Z,952.78
2023-03-10T07:37:03.868Z,952.89
2023-03-10T07:38:03.770Z,952.71
2023-03-10T07:39:03.723Z,952.80
2023-03-10T07:40:03.780Z,952.79
2023-03-10T07:41:03.748Z,952.93
2023-03-10T07:42:03.802Z,952.94
2023-03-10T07:43:03.763Z,952.78
2023-03-10T07:44:04.008Z,952.83
2023-03-10T07:45:03.811Z,952.92
2023-03-10T07:46:04.037Z,952.83
2023-03-10T07:47:03.729Z,952.92
2023-03-10T07:48:03.654Z,952.96
2023-03-10T07:49:03.715Z,952.98
2023-03-10T07:50:03.846Z,952.95
2023-03-10T07:51:03.961Z,952.90
2023-03-10T07:52:03.919Z,953.06
2023-03-10T07:53:03.000Z,952.97
2023-03-10T07:54:03.132Z,952.92
2023-03-10T07:55:03.232Z,953.02
2023-03-10T07:56:03.238Z,952.99
2023-03-10T07:57:03.377Z,953.09
2023-03-10T07:58:03.360Z,953.03
2023-03-10T07:59:03.439Z,952.97
2023-03-10T08:00:03.534Z,952.94
2023-03-10T08:01:03.568Z,952.99
2023-03-10T08:02:03.520Z,953.16
2023-03-10T08:03:03.462Z,953.10
2023-03-10T08:04:03.863Z,953.04
2023-03-10T08:05:03.623Z,953.04
2023-03-10T08:06:03.620Z,952.93
2023-03-10T08:07:03.605Z,953.14
2023-03-10T08:08:03.522Z,953.17
2023-03-10T08:09:03.627Z,953.08
2023-03-10T08:10:03.763Z,953.22
2023-03-10T08:11:03.730Z,953.07
2023-03-10T08:12:03.833Z,953.12
2023-03-10T08:13:03.782Z,953.18
2023-03-10T08:14:03.750Z,953.15
2023-03-10T08:15:03.963Z,953.11
2023-03-10T08:16:04.116Z,953.31
2023-03-10T08:17:03.921Z,953.22
2023-03-10T08:18:03.896Z,953.33
2023-03-10T08:19:03.967Z,953.36
2023-03-10T08:20:03.854Z,953.38
2023-03-10T08:21:03.953Z,953.43
2023-03-10T08:22:02.939Z,953.40
2023-03-10T08:23:03.097Z,953.43
2023-03-10T08:24:02.983Z,953.34
2023-03-10T08:25:03.061Z,953.39
2023-03-10T08:26:02.961Z,953.36
2023-03-10T08:27:02.951Z,953.47
2023-03-10T08:28:03.049Z,953.61
2023-03-10T08:29:03.051Z,953.38
2023-03-10T08:30:03.116Z,953.41
2023-03-10T08:31:05.814Z,953.55
2023-03-10T08:32:03.427Z,953.49
2023-03-10T08:33:03.531Z,953.58
2023-03-10T08:34:03.347Z,953.49
2023-03-10T08:35:03.353Z,953.57
2023-03-10T08:36:03.538Z,953.41
2023-03-10T08:37:03.324Z,953.38
2023-03-10T08:38:03.374Z,953.52
2023-03-10T08:39:03.504Z,953.69
2023-03-10T08:40:03.505Z,953.61
2023-03-10T08:41:03.589Z,953.55
2023-03-10T08:42:03.673Z,953.70
2023-03-10T08:43:03.558Z,953.69
2023-03-10T08:44:03.833Z,953.52
2023-03-10T08:45:03.579Z,953.48
2023-03-10T08:46:03.647Z,953.51
2023-03-10T08:47:03.899Z,953.54
2023-03-10T08:48:03.766Z,953.54
2023-03-10T08:49:03.715Z,953.54
2023-03-10T08:50:03.743Z,953.51
2023-03-10T08:51:03.838Z,953.54
2023-03-10T08:52:03.821Z,953.48
2023-03-10T08:53:03.880Z,953.63
2023-03-10T08:54:03.869Z,953.63
2023-03-10T08:55:03.965Z,953.55
2023-03-10T08:56:02.978Z,953.61
2023-03-10T08:57:03.007Z,953.66
2023-03-10T08:58:02.945Z,953.52
2023-03-10T08:59:03.906Z,953.49
2023-03-10T09:00:03.001Z,953.57
2023-03-10T09:01:03.069Z,953.40
2023-03-10T09:02:03.132Z,953.58
2023-03-10T09:03:03.023Z,953.55
2023-03-10T09:04:02.987Z,953.35
2023-03-10T09:05:03.087Z,953.41
2023-03-10T09:06:03.049Z,953.44
2023-03-10T09:07:03.105Z,953.41
2023-03-10T09:08:03.015Z,953.52
2023-03-10T09:09:03.632Z,953.38
2023-03-10T09:10:03.634Z,953.41
2023-03-10T09:11:03.621Z,953.32
2023-03-10T09:12:03.678Z,953.43
2023-03-10T09:13:14.541Z,953.35
2023-03-10T09:14:03.848Z,953.43
2023-03-10T09:15:03.707Z,953.37
2023-03-10T09:16:03.800Z,953.37
2023-03-10T09:17:03.683Z,953.40
2023-03-10T09:18:03.854Z,953.51
2023-03-10T09:19:03.929Z,953.51
2023-03-10T09:20:03.856Z,953.45
2023-03-10T09:21:03.823Z,953.46
2023-03-10T09:22:02.938Z,953.37
2023-03-10T09:23:03.002Z,953.40
2023-03-10T09:24:03.065Z,953.46
2023-03-10T09:25:03.081Z,953.51
2023-03-10T09:26:03.098Z,953.43
2023-03-10T09:27:03.116Z,953.43
2023-03-10T09:28:03.059Z,953.54
2023-03-10T09:29:03.118Z,953.29
2023-03-10T09:30:03.173Z,953.38
2023-03-10T09:31:03.174Z,953.44
2023-03-10T09:32:03.222Z,953.44
2023-03-10T09:33:03.201Z,953.51
2023-03-10T09:34:03.303Z,953.60
2023-03-10T09:35:03.361Z,953.54
2023-03-10T09:36:08.272Z,953.63
2023-03-10T09:37:03.443Z,953.60
2023-03-10T09:38:03.359Z,953.55
2023-03-10T09:39:03.511Z,953.49
2023-03-10T09:40:06.599Z,953.49
2023-03-10T09:41:03.555Z,953.54
2023-03-10T09:42:03.512Z,953.34
2023-03-10T09:43:03.450Z,953.37
2023-03-10T09:44:03.451Z,953.25
2023-03-10T09:45:03.428Z,953.53
2023-03-10T09:46:03.443Z,953.34
2023-03-10T09:47:03.522Z,953.42
2023-03-10T09:48:05.205Z,953.56
2023-03-10T09:49:03.464Z,953.42
2023-03-10T09:50:03.471Z,953.39
2023-03-10T09:51:03.468Z,953.39
2023-03-10T09:52:03.507Z,953.53
2023-03-10T09:53:03.578Z,953.42
2023-03-10T09:54:03.561Z,953.48
2023-03-10T09:55:03.794Z,953.45
2023-03-10T09:56:03.713Z,953.34
2023-03-10T09:57:03.601Z,953.66
2023-03-10T09:58:04.427Z,953.43
2023-03-10T09:59:03.825Z,953.47
2023-03-10T10:00:03.744Z,953.36
2023-03-10T10:01:03.806Z,953.33
2023-03-10T10:02:04.091Z,953.30
2023-03-10T10:03:03.977Z,953.22
2023-03-10T10:04:04.066Z,953.25
2023-03-10T10:05:04.628Z,953.37
2023-03-10T10:06:03.738Z,953.20
2023-03-10T10:07:03.959Z,953.31
2023-03-10T10:08:03.880Z,953.31
2023-03-10T10:09:06.040Z,953.22
2023-03-10T10:10:03.852Z,953.36
2023-03-10T10:11:03.847Z,953.27
2023-03-10T10:12:03.907Z,953.25
2023-03-10T10:13:03.774Z,953.16
2023-03-10T10:14:03.783Z,953.24
2023-03-10T10:15:03.838Z,953.15
2023-03-10T10:16:33.782Z,953.15
2023-03-10T10:17:04.023Z,953.12
2023-03-10T10:18:19.564Z,953.03
2023-03-10T10:19:03.069Z,953.18
2023-03-10T10:20:03.177Z,953.20
2023-03-10T10:21:02.957Z,953.12
2023-03-10T10:22:02.920Z,953.14
2023-03-10T10:23:03.024Z,953.14
2023-03-10T10:24:03.042Z,953.11
2023-03-10T10:25:03.019Z,953.25
2023-03-10T10:26:03.193Z,953.28
2023-03-10T10:27:03.148Z,953.17
2023-03-10T10:28:03.087Z,953.20
2023-03-10T10:29:02.969Z,953.23
2023-03-10T10:30:03.132Z,953.23
2023-03-10T10:31:03.225Z,953.28
2023-03-10T10:32:03.161Z,953.37
2023-03-10T10:33:02.968Z,953.32
2023-03-10T10:34:03.169Z,953.35
2023-03-10T10:35:03.053Z,953.29
2023-03-10T10:36:03.380Z,953.47
2023-03-10T10:37:03.102Z,953.47
2023-03-10T10:38:03.021Z,953.41
2023-03-10T10:39:03.105Z,953.25
2023-03-10T10:40:03.110Z,953.45
2023-03-10T10:41:07.435Z,953.32
2023-03-10T10:42:03.235Z,953.32
2023-03-10T10:43:03.105Z,953.21
2023-03-10T10:44:03.179Z,953.35
2023-03-10T10:45:03.155Z,953.33
2023-03-10T10:46:03.317Z,953.35
2023-03-10T10:47:03.351Z,953.33
2023-03-10T10:48:03.221Z,953.33
2023-03-10T10:49:03.247Z,953.27
2023-03-10T10:50:03.460Z,953.24
2023-03-10T10:51:03.330Z,953.13
2023-03-10T10:52:03.458Z,953.16
2023-03-10T10:53:03.583Z,953.16
2023-03-10T10:54:03.509Z,953.10
2023-03-10T10:55:03.583Z,953.24
2023-03-10T10:56:03.712Z,953.13
2023-03-10T10:57:03.766Z,953.19
2023-03-10T10:58:03.647Z,953.13
2023-03-10T10:59:03.768Z,953.16
2023-03-10T11:00:03.915Z,953.01
2023-03-10T11:01:04.175Z,953.13
2023-03-10T11:02:04.087Z,953.01
2023-03-10T11:03:03.685Z,953.01
2023-03-10T11:04:03.630Z,952.98
2023-03-10T11:05:03.656Z,952.88
2023-03-10T11:06:03.656Z,953.07
2023-03-10T11:07:03.726Z,952.98
2023-03-10T11:08:03.793Z,953.04
2023-03-10T11:09:03.926Z,953.10
2023-03-10T11:10:04.008Z,953.01
2023-03-10T11:11:03.908Z,952.96
2023-03-10T11:12:03.032Z,953.05
2023-03-10T11:13:03.010Z,953.11
2023-03-10T11:14:03.813Z,952.97
2023-03-10T11:15:03.818Z,953.06
2023-03-10T11:16:03.844Z,952.93
2023-03-10T11:17:03.796Z,952.96
2023-03-10T11:18:03.858Z,952.98
2023-03-10T11:19:03.815Z,952.93
2023-03-10T11:20:03.896Z,952.91
2023-03-10T11:21:03.881Z,952.69
2023-03-10T11:22:03.813Z,952.84
2023-03-10T11:23:03.798Z,953.06
2023-03-10T11:24:03.723Z,952.95
2023-03-10T11:25:03.658Z,952.90
2023-03-10T11:26:03.709Z,952.81
2023-03-10T11:27:03.720Z,952.84
2023-03-10T11:28:03.802Z,952.73
2023-03-10T11:29:03.889Z,952.76
2023-03-10T11:30:03.875Z,952.70
2023-03-10T11:31:03.819Z,952.58
2023-03-10T11:32:03.776Z,952.67
2023-03-10T11:33:03.821Z,952.55
2023-03-10T11:34:02.984Z,952.55
2023-03-10T11:35:03.093Z,952.40
2023-03-10T11:36:03.152Z,952.60
2023-03-10T11:37:03.126Z,952.48
2023-03-10T11:38:03.195Z,952.48
2023-03-10T11:39:03.226Z,952.44
2023-03-10T11:40:03.280Z,952.50
2023-03-10T11:41:03.307Z,952.49
2023-03-10T11:42:03.267Z,952.58
2023-03-10T11:43:03.198Z,952.43
2023-03-10T11:44:03.383Z,952.54
2023-03-10T11:45:03.335Z,952.77
2023-03-10T11:46:03.438Z,952.69
2023-03-10T11:47:03.332Z,952.54
2023-03-10T11:48:03.319Z,952.71
2023-03-10T11:49:03.358Z,952.80
2023-03-10T11:50:03.439Z,952.69
2023-03-10T11:51:03.422Z,952.49
2023-03-10T11:52:03.553Z,952.69
2023-03-10T11:53:03.510Z,952.78
2023-03-10T11:54:03.533Z,952.89
2023-03-10T11:55:03.469Z,952.78
2023-03-10T11:56:03.432Z,952.63
2023-03-10T11:57:03.442Z,952.89
2023-03-10T11:58:03.404Z,952.78
2023-03-10T11:59:03.423Z,952.80
2023-03-10T12:00:03.476Z,952.78
2023-03-10T12:01:03.531Z,952.72
2023-03-10T12:02:03.750Z,952.80
2023-03-10T12:03:03.830Z,952.63
2023-03-10T12:04:03.767Z,952.66
2023-03-10T12:05:03.983Z,952.68
2023-03-10T12:06:02.939Z,952.77
2023-03-10T12:07:02.897Z,952.62
2023-03-10T12:08:03.949Z,952.59
2023-03-10T12:09:03.969Z,952.62
2023-03-10T12:10:03.009Z,952.82
2023-03-10T12:11:03.023Z,952.65
2023-03-10T12:12:02.979Z,952.85
2023-03-10T12:13:03.011Z,952.62
2023-03-10T12:14:03.041Z,952.85
2023-03-10T12:15:03.013Z,952.83
2023-03-10T12:16:03.991Z,952.77
2023-03-10T12:17:03.921Z,952.86
2023-03-10T12:18:02.963Z,952.81
2023-03-10T12:19:03.879Z,952.78
2023-03-10T12:20:03.864Z,952.81
2023-03-10T12:21:02.974Z,952.84
2023-03-10T12:22:03.119Z,952.88
2023-03-10T12:23:03.056Z,952.91
2023-03-10T12:24:03.099Z,952.89
2023-03-10T12:25:03.030Z,952.84
2023-03-10T12:26:03.069Z,952.79
2023-03-10T12:27:03.186Z,952.96
2023-03-10T12:28:03.107Z,952.78